sensor_id;sensor_type;location;lat;lon;timestamp;P1;durP1;ratioP1;P2;durP2;ratioP2
6269;SDS011;3168;51.684;6.954;2023-03-23T00:02:23;2.40;;;2.30;;
6269;SDS011;3168;51.684;6.954;2023-03-23T00:04:49;2.90;;;2.70;;
6269;SDS011;3168;51.684;6.954;2023-03-23T00:07:15;2.40;;;2.30;;
6269;SDS011;3168;51.684;6.954;2023-03-23T00:09:41;3.50;;;3.20;;
6269;SDS011;3168;51.684;6.954;2023-03-23T00:12:07;1.63;;;1.63;;
6269;SDS011;3168;51.684;6.954;2023-03-23T00:14:33;2.50;;;2.30;;
6269;SDS011;3168;51.684;6.954;2023-03-23T00:17:02;4.10;;;2.37;;
6269;SDS011;3168;51.684;6.954;2023-03-23T00:19:27;2.30;;;2.20;;
6269;SDS011;3168;51.684;6.954;2023-03-23T00:21:53;3.20;;;2.40;;
6269;SDS011;3168;51.684;6.954;2023-03-23T00:24:19;8.43;;;1.97;;
6269;SDS011;3168;51.684;6.954;2023-03-23T00:26:45;1.60;;;1.50;;
6269;SDS011;3168;51.684;6.954;2023-03-23T00:29:13;2.00;;;1.80;;
6269;SDS011;3168;51.684;6.954;2023-03-23T00:31:37;2.60;;;2.43;;
6269;SDS011;3168;51.684;6.954;2023-03-23T00:34:04;2.27;;;2.17;;
6269;SDS011;3168;51.684;6.954;2023-03-23T00:36:30;1.93;;;1.83;;
6269;SDS011;3168;51.684;6.954;2023-03-23T00:38:55;2.10;;;2.00;;
6269;SDS011;3168;51.684;6.954;2023-03-23T00:41:24;2.87;;;1.67;;
6269;SDS011;3168;51.684;6.954;2023-03-23T00:43:49;3.50;;;2.20;;
6269;SDS011;3168;51.684;6.954;2023-03-23T00:46:15;1.87;;;1.77;;
6269;SDS011;3168;51.684;6.954;2023-03-23T00:48:41;1.70;;;1.70;;
6269;SDS011;3168;51.684;6.954;2023-03-23T00:51:07;3.37;;;2.17;;
6269;SDS011;3168;51.684;6.954;2023-03-23T00:53:33;2.00;;;1.77;;
6269;SDS011;3168;51.684;6.954;2023-03-23T00:55:59;4.50;;;1.90;;
6269;SDS011;3168;51.684;6.954;2023-03-23T00:58:24;1.87;;;1.77;;
6269;SDS011;3168;51.684;6.954;2023-03-23T01:00:50;1.50;;;1.50;;
6269;SDS011;3168;51.684;6.954;2023-03-23T01:03:16;1.90;;;1.70;;
6269;SDS011;3168;51.684;6.954;2023-03-23T01:05:42;6.00;;;2.00;;
6269;SDS011;3168;51.684;6.954;2023-03-23T01:08:08;2.07;;;2.00;;
6269;SDS011;3168;51.684;6.954;2023-03-23T01:10:34;2.47;;;2.23;;
6269;SDS011;3168;51.684;6.954;2023-03-23T01:13:00;1.80;;;1.80;;
6269;SDS011;3168;51.684;6.954;2023-03-23T01:15:27;2.17;;;2.07;;
6269;SDS011;3168;51.684;6.954;2023-03-23T01:17:52;1.67;;;1.67;;
6269;SDS011;3168;51.684;6.954;2023-03-23T01:20:18;5.40;;;2.50;;
6269;SDS011;3168;51.684;6.954;2023-03-23T01:22:44;1.93;;;1.83;;
6269;SDS011;3168;51.684;6.954;2023-03-23T01:25:10;1.67;;;1.57;;
6269;SDS011;3168;51.684;6.954;2023-03-23T01:27:36;2.30;;;2.20;;
6269;SDS011;3168;51.684;6.954;2023-03-23T01:30:02;1.93;;;1.70;;
6269;SDS011;3168;51.684;6.954;2023-03-23T01:32:28;4.63;;;2.00;;
6269;SDS011;3168;51.684;6.954;2023-03-23T01:34:53;1.83;;;1.73;;
6269;SDS011;3168;51.684;6.954;2023-03-23T01:37:19;2.40;;;1.67;;
6269;SDS011;3168;51.684;6.954;2023-03-23T01:39:45;4.10;;;1.70;;
6269;SDS011;3168;51.684;6.954;2023-03-23T01:42:11;1.20;;;1.20;;
6269;SDS011;3168;51.684;6.954;2023-03-23T01:47:26;1.90;;;1.80;;
6269;SDS011;3168;51.684;6.954;2023-03-23T01:49:51;3.03;;;1.70;;
6269;SDS011;3168;51.684;6.954;2023-03-23T01:52:19;1.17;;;1.17;;
6269;SDS011;3168;51.684;6.954;2023-03-23T01:54:44;15.87;;;1.90;;
6269;SDS011;3168;51.684;6.954;2023-03-23T01:57:14;1.60;;;1.50;;
6269;SDS011;3168;51.684;6.954;2023-03-23T01:59:38;3.83;;;2.10;;
6269;SDS011;3168;51.684;6.954;2023-03-23T02:02:04;1.90;;;1.67;;
6269;SDS011;3168;51.684;6.954;2023-03-23T02:04:31;2.33;;;2.13;;
6269;SDS011;3168;51.684;6.954;2023-03-23T02:06:56;6.90;;;2.10;;
6269;SDS011;3168;51.684;6.954;2023-03-23T02:09:23;1.57;;;1.47;;
6269;SDS011;3168;51.684;6.954;2023-03-23T02:11:48;10.00;;;2.53;;
6269;SDS011;3168;51.684;6.954;2023-03-23T02:14:15;1.20;;;1.20;;
6269;SDS011;3168;51.684;6.954;2023-03-23T02:16:48;1.50;;;1.40;;
6269;SDS011;3168;51.684;6.954;2023-03-23T02:19:27;2.47;;;1.70;;
6269;SDS011;3168;51.684;6.954;2023-03-23T02:21:55;1.87;;;1.87;;
6269;SDS011;3168;51.684;6.954;2023-03-23T02:24:40;4.10;;;1.47;;
6269;SDS011;3168;51.684;6.954;2023-03-23T02:27:12;2.00;;;1.90;;
6269;SDS011;3168;51.684;6.954;2023-03-23T02:32:51;1.40;;;1.40;;
6269;SDS011;3168;51.684;6.954;2023-03-23T02:35:18;1.97;;;1.87;;
6269;SDS011;3168;51.684;6.954;2023-03-23T02:37:47;15.73;;;2.10;;
6269;SDS011;3168;51.684;6.954;2023-03-23T02:40:12;1.93;;;1.50;;
6269;SDS011;3168;51.684;6.954;2023-03-23T02:42:39;1.67;;;1.67;;
6269;SDS011;3168;51.684;6.954;2023-03-23T02:45:04;1.73;;;1.73;;
6269;SDS011;3168;51.684;6.954;2023-03-23T02:47:31;1.70;;;1.70;;
6269;SDS011;3168;51.684;6.954;2023-03-23T02:49:56;1.90;;;1.80;;
6269;SDS011;3168;51.684;6.954;2023-03-23T02:52:23;9.37;;;2.03;;
6269;SDS011;3168;51.684;6.954;2023-03-23T02:54:48;2.17;;;2.03;;
6269;SDS011;3168;51.684;6.954;2023-03-23T02:57:14;3.73;;;2.47;;
6269;SDS011;3168;51.684;6.954;2023-03-23T02:59:40;1.73;;;1.63;;
6269;SDS011;3168;51.684;6.954;2023-03-23T03:02:07;1.87;;;1.77;;
6269;SDS011;3168;51.684;6.954;2023-03-23T03:04:32;1.10;;;1.10;;
6269;SDS011;3168;51.684;6.954;2023-03-23T03:07:01;2.27;;;2.17;;
6269;SDS011;3168;51.684;6.954;2023-03-23T03:10:09;1.50;;;1.47;;
6269;SDS011;3168;51.684;6.954;2023-03-23T03:12:27;2.20;;;2.10;;
6269;SDS011;3168;51.684;6.954;2023-03-23T03:15:28;1.77;;;1.70;;
6269;SDS011;3168;51.684;6.954;2023-03-23T03:17:55;4.13;;;1.60;;
6269;SDS011;3168;51.684;6.954;2023-03-23T03:20:28;1.90;;;1.90;;
6269;SDS011;3168;51.684;6.954;2023-03-23T03:22:54;1.33;;;1.33;;
6269;SDS011;3168;51.684;6.954;2023-03-23T03:25:20;1.40;;;1.40;;
6269;SDS011;3168;51.684;6.954;2023-03-23T03:27:46;1.40;;;1.40;;
6269;SDS011;3168;51.684;6.954;2023-03-23T03:30:12;1.73;;;1.63;;
6269;SDS011;3168;51.684;6.954;2023-03-23T03:32:41;1.50;;;1.50;;
6269;SDS011;3168;51.684;6.954;2023-03-23T03:35:04;1.50;;;1.50;;
6269;SDS011;3168;51.684;6.954;2023-03-23T03:37:33;1.60;;;1.60;;
6269;SDS011;3168;51.684;6.954;2023-03-23T03:39:58;1.70;;;1.70;;
6269;SDS011;3168;51.684;6.954;2023-03-23T03:42:24;1.57;;;1.57;;
6269;SDS011;3168;51.684;6.954;2023-03-23T03:44:50;1.33;;;1.23;;
6269;SDS011;3168;51.684;6.954;2023-03-23T03:47:16;1.80;;;1.57;;
6269;SDS011;3168;51.684;6.954;2023-03-23T03:49:42;2.03;;;1.63;;
6269;SDS011;3168;51.684;6.954;2023-03-23T03:52:08;3.47;;;1.93;;
6269;SDS011;3168;51.684;6.954;2023-03-23T03:54:33;1.63;;;1.63;;
6269;SDS011;3168;51.684;6.954;2023-03-23T03:56:59;5.17;;;2.00;;
6269;SDS011;3168;51.684;6.954;2023-03-23T03:59:25;1.30;;;1.30;;
6269;SDS011;3168;51.684;6.954;2023-03-23T04:01:51;1.20;;;1.20;;
6269;SDS011;3168;51.684;6.954;2023-03-23T04:04:17;1.87;;;1.77;;
6269;SDS011;3168;51.684;6.954;2023-03-23T04:06:43;1.43;;;1.37;;
6269;SDS011;3168;51.684;6.954;2023-03-23T04:09:09;1.53;;;1.43;;
6269;SDS011;3168;51.684;6.954;2023-03-23T04:11:34;1.90;;;1.20;;
6269;SDS011;3168;51.684;6.954;2023-03-23T04:14:00;1.50;;;1.40;;
6269;SDS011;3168;51.684;6.954;2023-03-23T04:16:26;1.30;;;1.27;;
6269;SDS011;3168;51.684;6.954;2023-03-23T04:18:52;1.20;;;1.20;;
6269;SDS011;3168;51.684;6.954;2023-03-23T04:21:17;1.60;;;1.50;;
6269;SDS011;3168;51.684;6.954;2023-03-23T04:23:43;1.53;;;1.47;;
6269;SDS011;3168;51.684;6.954;2023-03-23T04:26:09;1.00;;;1.00;;
6269;SDS011;3168;51.684;6.954;2023-03-23T04:28:35;4.13;;;1.77;;
6269;SDS011;3168;51.684;6.954;2023-03-23T04:31:01;1.53;;;1.47;;
6269;SDS011;3168;51.684;6.954;2023-03-23T04:33:28;1.37;;;1.37;;
6269;SDS011;3168;51.684;6.954;2023-03-23T04:35:53;1.77;;;1.67;;
6269;SDS011;3168;51.684;6.954;2023-03-23T04:38:18;1.53;;;1.43;;
6269;SDS011;3168;51.684;6.954;2023-03-23T04:40:45;2.27;;;2.07;;
6269;SDS011;3168;51.684;6.954;2023-03-23T04:43:11;1.03;;;1.03;;
6269;SDS011;3168;51.684;6.954;2023-03-23T04:45:37;1.90;;;1.80;;
6269;SDS011;3168;51.684;6.954;2023-03-23T04:48:03;1.70;;;1.70;;
6269;SDS011;3168;51.684;6.954;2023-03-23T04:50:30;2.97;;;1.73;;
6269;SDS011;3168;51.684;6.954;2023-03-23T04:52:55;1.93;;;1.83;;
6269;SDS011;3168;51.684;6.954;2023-03-23T04:55:21;2.03;;;1.93;;
6269;SDS011;3168;51.684;6.954;2023-03-23T04:57:47;3.63;;;1.33;;
6269;SDS011;3168;51.684;6.954;2023-03-23T05:00:12;2.00;;;1.90;;
6269;SDS011;3168;51.684;6.954;2023-03-23T05:02:39;1.90;;;1.77;;
6269;SDS011;3168;51.684;6.954;2023-03-23T05:05:05;1.87;;;1.77;;
6269;SDS011;3168;51.684;6.954;2023-03-23T05:07:31;1.30;;;1.30;;
6269;SDS011;3168;51.684;6.954;2023-03-23T05:09:56;1.73;;;1.73;;
6269;SDS011;3168;51.684;6.954;2023-03-23T05:12:22;2.57;;;1.67;;
6269;SDS011;3168;51.684;6.954;2023-03-23T05:14:48;3.93;;;1.63;;
6269;SDS011;3168;51.684;6.954;2023-03-23T05:17:14;11.70;;;1.97;;
6269;SDS011;3168;51.684;6.954;2023-03-23T05:19:40;2.17;;;2.03;;
6269;SDS011;3168;51.684;6.954;2023-03-23T05:22:06;1.93;;;1.83;;
6269;SDS011;3168;51.684;6.954;2023-03-23T05:24:31;1.47;;;1.47;;
6269;SDS011;3168;51.684;6.954;2023-03-23T05:26:57;3.60;;;2.03;;
6269;SDS011;3168;51.684;6.954;2023-03-23T05:29:23;1.60;;;1.60;;
6269;SDS011;3168;51.684;6.954;2023-03-23T05:31:49;1.77;;;1.67;;
6269;SDS011;3168;51.684;6.954;2023-03-23T05:34:14;2.23;;;2.13;;
6269;SDS011;3168;51.684;6.954;2023-03-23T05:36:40;1.60;;;1.50;;
6269;SDS011;3168;51.684;6.954;2023-03-23T05:39:06;1.70;;;1.53;;
6269;SDS011;3168;51.684;6.954;2023-03-23T05:41:32;1.73;;;1.63;;
6269;SDS011;3168;51.684;6.954;2023-03-23T05:43:58;1.70;;;1.60;;
6269;SDS011;3168;51.684;6.954;2023-03-23T05:46:25;2.55;;;1.50;;
6269;SDS011;3168;51.684;6.954;2023-03-23T05:48:51;10.60;;;2.20;;
6269;SDS011;3168;51.684;6.954;2023-03-23T05:51:17;15.03;;;2.13;;
6269;SDS011;3168;51.684;6.954;2023-03-23T05:53:43;1.53;;;1.43;;
6269;SDS011;3168;51.684;6.954;2023-03-23T05:56:08;4.63;;;2.13;;
6269;SDS011;3168;51.684;6.954;2023-03-23T05:58:34;1.50;;;1.40;;
6269;SDS011;3168;51.684;6.954;2023-03-23T06:01:00;2.63;;;1.43;;
6269;SDS011;3168;51.684;6.954;2023-03-23T06:03:26;1.67;;;1.57;;
6269;SDS011;3168;51.684;6.954;2023-03-23T06:05:52;1.67;;;1.57;;
6269;SDS011;3168;51.684;6.954;2023-03-23T06:08:17;3.53;;;1.93;;
6269;SDS011;3168;51.684;6.954;2023-03-23T06:10:43;1.77;;;1.70;;
6269;SDS011;3168;51.684;6.954;2023-03-23T06:13:10;2.70;;;2.60;;
6269;SDS011;3168;51.684;6.954;2023-03-23T06:15:35;1.33;;;1.33;;
6269;SDS011;3168;51.684;6.954;2023-03-23T06:18:02;4.30;;;2.47;;
6269;SDS011;3168;51.684;6.954;2023-03-23T06:20:27;1.20;;;1.20;;
6269;SDS011;3168;51.684;6.954;2023-03-23T06:22:53;1.57;;;1.57;;
6269;SDS011;3168;51.684;6.954;2023-03-23T06:25:19;1.40;;;1.40;;
6269;SDS011;3168;51.684;6.954;2023-03-23T06:27:45;2.20;;;2.07;;
6269;SDS011;3168;51.684;6.954;2023-03-23T06:30:12;4.03;;;1.80;;
6269;SDS011;3168;51.684;6.954;2023-03-23T06:32:38;1.20;;;1.20;;
6269;SDS011;3168;51.684;6.954;2023-03-23T06:35:03;1.77;;;1.63;;
6269;SDS011;3168;51.684;6.954;2023-03-23T06:37:30;1.80;;;1.70;;
6269;SDS011;3168;51.684;6.954;2023-03-23T06:39:56;1.63;;;1.60;;
6269;SDS011;3168;51.684;6.954;2023-03-23T06:42:22;1.80;;;1.23;;
6269;SDS011;3168;51.684;6.954;2023-03-23T06:44:48;1.93;;;1.73;;
6269;SDS011;3168;51.684;6.954;2023-03-23T06:47:14;1.10;;;1.10;;
6269;SDS011;3168;51.684;6.954;2023-03-23T06:49:39;6.53;;;1.93;;
6269;SDS011;3168;51.684;6.954;2023-03-23T06:52:05;6.00;;;1.80;;
6269;SDS011;3168;51.684;6.954;2023-03-23T06:54:31;2.07;;;1.43;;
6269;SDS011;3168;51.684;6.954;2023-03-23T06:56:57;3.43;;;1.40;;
6269;SDS011;3168;51.684;6.954;2023-03-23T06:59:23;2.00;;;1.90;;
6269;SDS011;3168;51.684;6.954;2023-03-23T07:01:49;3.27;;;2.03;;
6269;SDS011;3168;51.684;6.954;2023-03-23T07:04:15;1.97;;;1.87;;
6269;SDS011;3168;51.684;6.954;2023-03-23T07:06:41;4.87;;;2.07;;
6269;SDS011;3168;51.684;6.954;2023-03-23T07:09:07;1.10;;;1.10;;
6269;SDS011;3168;51.684;6.954;2023-03-23T07:11:33;2.10;;;1.37;;
6269;SDS011;3168;51.684;6.954;2023-03-23T07:13:59;1.60;;;1.50;;
6269;SDS011;3168;51.684;6.954;2023-03-23T07:16:24;10.90;;;2.80;;
6269;SDS011;3168;51.684;6.954;2023-03-23T07:18:50;1.70;;;1.60;;
6269;SDS011;3168;51.684;6.954;2023-03-23T07:21:16;2.17;;;2.07;;
6269;SDS011;3168;51.684;6.954;2023-03-23T07:23:42;1.50;;;1.47;;
6269;SDS011;3168;51.684;6.954;2023-03-23T07:26:08;5.40;;;1.60;;
6269;SDS011;3168;51.684;6.954;2023-03-23T07:28:34;6.33;;;2.60;;
6269;SDS011;3168;51.684;6.954;2023-03-23T07:30:59;3.53;;;1.83;;
6269;SDS011;3168;51.684;6.954;2023-03-23T07:33:25;2.33;;;1.07;;
6269;SDS011;3168;51.684;6.954;2023-03-23T07:35:51;2.20;;;1.50;;
6269;SDS011;3168;51.684;6.954;2023-03-23T07:38:17;1.40;;;1.30;;
6269;SDS011;3168;51.684;6.954;2023-03-23T07:40:45;1.70;;;1.60;;
6269;SDS011;3168;51.684;6.954;2023-03-23T07:43:09;1.30;;;1.30;;
6269;SDS011;3168;51.684;6.954;2023-03-23T07:45:35;2.70;;;1.50;;
6269;SDS011;3168;51.684;6.954;2023-03-23T07:48:01;1.83;;;1.20;;
6269;SDS011;3168;51.684;6.954;2023-03-23T07:50:27;5.33;;;1.40;;
6269;SDS011;3168;51.684;6.954;2023-03-23T07:52:53;1.33;;;1.30;;
6269;SDS011;3168;51.684;6.954;2023-03-23T07:55:19;1.40;;;1.37;;
6269;SDS011;3168;51.684;6.954;2023-03-23T07:57:45;1.83;;;1.73;;
6269;SDS011;3168;51.684;6.954;2023-03-23T08:00:11;2.30;;;1.50;;
6269;SDS011;3168;51.684;6.954;2023-03-23T08:02:38;1.10;;;1.10;;
6269;SDS011;3168;51.684;6.954;2023-03-23T08:05:04;2.20;;;1.43;;
6269;SDS011;3168;51.684;6.954;2023-03-23T08:07:30;4.00;;;1.77;;
6269;SDS011;3168;51.684;6.954;2023-03-23T08:09:56;1.67;;;1.30;;
6269;SDS011;3168;51.684;6.954;2023-03-23T08:12:22;2.60;;;1.30;;
6269;SDS011;3168;51.684;6.954;2023-03-23T08:14:48;4.00;;;3.27;;
6269;SDS011;3168;51.684;6.954;2023-03-23T08:17:14;1.60;;;1.50;;
6269;SDS011;3168;51.684;6.954;2023-03-23T08:19:40;1.27;;;1.27;;
6269;SDS011;3168;51.684;6.954;2023-03-23T08:22:06;8.03;;;1.30;;
6269;SDS011;3168;51.684;6.954;2023-03-23T08:24:32;1.43;;;1.33;;
6269;SDS011;3168;51.684;6.954;2023-03-23T08:26:59;9.63;;;1.90;;
6269;SDS011;3168;51.684;6.954;2023-03-23T08:29:24;1.47;;;1.47;;
6269;SDS011;3168;51.684;6.954;2023-03-23T08:31:50;4.60;;;1.17;;
6269;SDS011;3168;51.684;6.954;2023-03-23T08:34:16;1.20;;;1.20;;
6269;SDS011;3168;51.684;6.954;2023-03-23T08:36:42;3.57;;;1.50;;
6269;SDS011;3168;51.684;6.954;2023-03-23T08:39:08;2.50;;;1.77;;
6269;SDS011;3168;51.684;6.954;2023-03-23T08:41:33;1.37;;;1.30;;
6269;SDS011;3168;51.684;6.954;2023-03-23T08:43:59;1.50;;;1.40;;
6269;SDS011;3168;51.684;6.954;2023-03-23T08:46:25;2.27;;;1.10;;
6269;SDS011;3168;51.684;6.954;2023-03-23T08:48:51;4.63;;;1.80;;
6269;SDS011;3168;51.684;6.954;2023-03-23T08:51:17;2.30;;;1.97;;
6269;SDS011;3168;51.684;6.954;2023-03-23T08:53:43;1.63;;;1.53;;
6269;SDS011;3168;51.684;6.954;2023-03-23T08:56:10;1.90;;;1.80;;
6269;SDS011;3168;51.684;6.954;2023-03-23T08:58:35;1.70;;;1.60;;
6269;SDS011;3168;51.684;6.954;2023-03-23T09:01:01;2.70;;;1.17;;
6269;SDS011;3168;51.684;6.954;2023-03-23T09:03:27;1.50;;;1.40;;
6269;SDS011;3168;51.684;6.954;2023-03-23T09:05:52;5.57;;;1.27;;
6269;SDS011;3168;51.684;6.954;2023-03-23T09:08:18;1.50;;;1.43;;
6269;SDS011;3168;51.684;6.954;2023-03-23T09:10:44;1.87;;;1.77;;
6269;SDS011;3168;51.684;6.954;2023-03-23T09:13:10;2.90;;;1.90;;
6269;SDS011;3168;51.684;6.954;2023-03-23T09:15:36;12.27;;;1.83;;
6269;SDS011;3168;51.684;6.954;2023-03-23T09:18:02;1.30;;;1.03;;
6269;SDS011;3168;51.684;6.954;2023-03-23T09:20:28;1.23;;;1.10;;
6269;SDS011;3168;51.684;6.954;2023-03-23T09:22:54;3.90;;;0.77;;
6269;SDS011;3168;51.684;6.954;2023-03-23T09:25:21;11.03;;;0.70;;
6269;SDS011;3168;51.684;6.954;2023-03-23T09:27:49;0.70;;;0.70;;
6269;SDS011;3168;51.684;6.954;2023-03-23T09:30:14;1.90;;;1.00;;
6269;SDS011;3168;51.684;6.954;2023-03-23T09:32:40;1.13;;;0.50;;
6269;SDS011;3168;51.684;6.954;2023-03-23T09:35:07;1.70;;;0.70;;
6269;SDS011;3168;51.684;6.954;2023-03-23T09:37:34;2.53;;;0.70;;
6269;SDS011;3168;51.684;6.954;2023-03-23T09:39:59;1.43;;;1.37;;
6269;SDS011;3168;51.684;6.954;2023-03-23T09:42:48;0.73;;;0.73;;
6269;SDS011;3168;51.684;6.954;2023-03-23T09:45:16;0.70;;;0.70;;
6269;SDS011;3168;51.684;6.954;2023-03-23T09:48:50;5.15;;;1.23;;
6269;SDS011;3168;51.684;6.954;2023-03-23T09:50:41;0.60;;;0.60;;
6269;SDS011;3168;51.684;6.954;2023-03-23T09:53:10;3.33;;;0.70;;
6269;SDS011;3168;51.684;6.954;2023-03-23T09:55:41;0.50;;;0.50;;
6269;SDS011;3168;51.684;6.954;2023-03-23T09:58:12;2.50;;;1.10;;
6269;SDS011;3168;51.684;6.954;2023-03-23T10:00:41;0.63;;;0.63;;
6269;SDS011;3168;51.684;6.954;2023-03-23T10:03:13;0.73;;;0.73;;
6269;SDS011;3168;51.684;6.954;2023-03-23T10:05:40;0.50;;;0.50;;
6269;SDS011;3168;51.684;6.954;2023-03-23T10:08:08;0.60;;;0.60;;
6269;SDS011;3168;51.684;6.954;2023-03-23T10:10:41;0.70;;;0.70;;
6269;SDS011;3168;51.684;6.954;2023-03-23T10:13:20;0.60;;;0.60;;
6269;SDS011;3168;51.684;6.954;2023-03-23T10:15:42;0.70;;;0.70;;
6269;SDS011;3168;51.684;6.954;2023-03-23T10:18:20;0.90;;;0.90;;
6269;SDS011;3168;51.684;6.954;2023-03-23T10:20:50;2.00;;;1.03;;
6269;SDS011;3168;51.684;6.954;2023-03-23T10:23:51;0.70;;;0.70;;
6269;SDS011;3168;51.684;6.954;2023-03-23T10:26:49;0.60;;;0.60;;
6269;SDS011;3168;51.684;6.954;2023-03-23T10:28:59;0.70;;;0.70;;
6269;SDS011;3168;51.684;6.954;2023-03-23T10:31:25;1.33;;;0.90;;
6269;SDS011;3168;51.684;6.954;2023-03-23T10:33:52;1.17;;;1.10;;
6269;SDS011;3168;51.684;6.954;2023-03-23T10:36:21;1.43;;;0.60;;
6269;SDS011;3168;51.684;6.954;2023-03-23T10:38:47;1.00;;;0.70;;
6269;SDS011;3168;51.684;6.954;2023-03-23T10:41:12;0.60;;;0.60;;
6269;SDS011;3168;51.684;6.954;2023-03-23T10:43:37;1.27;;;1.00;;
6269;SDS011;3168;51.684;6.954;2023-03-23T10:46:06;0.90;;;0.90;;
6269;SDS011;3168;51.684;6.954;2023-03-23T10:48:36;0.70;;;0.70;;
6269;SDS011;3168;51.684;6.954;2023-03-23T10:51:00;0.60;;;0.60;;
6269;SDS011;3168;51.684;6.954;2023-03-23T10:53:28;0.70;;;0.70;;
6269;SDS011;3168;51.684;6.954;2023-03-23T10:55:54;1.00;;;0.77;;
6269;SDS011;3168;51.684;6.954;2023-03-23T10:58:23;0.70;;;0.70;;
6269;SDS011;3168;51.684;6.954;2023-03-23T11:00:48;0.70;;;0.70;;
6269;SDS011;3168;51.684;6.954;2023-03-23T11:05:56;0.80;;;0.80;;
6269;SDS011;3168;51.684;6.954;2023-03-23T11:08:22;0.60;;;0.60;;
6269;SDS011;3168;51.684;6.954;2023-03-23T11:10:49;0.90;;;0.90;;
6269;SDS011;3168;51.684;6.954;2023-03-23T11:13:15;0.93;;;0.70;;
6269;SDS011;3168;51.684;6.954;2023-03-23T11:15:42;4.97;;;0.90;;
6269;SDS011;3168;51.684;6.954;2023-03-23T11:18:09;0.80;;;0.80;;
6269;SDS011;3168;51.684;6.954;2023-03-23T11:20:35;0.60;;;0.60;;
6269;SDS011;3168;51.684;6.954;2023-03-23T11:23:00;5.03;;;0.80;;
6269;SDS011;3168;51.684;6.954;2023-03-23T11:25:26;2.20;;;0.70;;
6269;SDS011;3168;51.684;6.954;2023-03-23T11:27:52;1.20;;;0.60;;
6269;SDS011;3168;51.684;6.954;2023-03-23T11:30:22;0.50;;;0.50;;
6269;SDS011;3168;51.684;6.954;2023-03-23T11:32:46;0.90;;;0.90;;
6269;SDS011;3168;51.684;6.954;2023-03-23T11:35:15;0.80;;;0.80;;
6269;SDS011;3168;51.684;6.954;2023-03-23T11:37:41;2.70;;;2.47;;
6269;SDS011;3168;51.684;6.954;2023-03-23T11:40:15;0.70;;;0.70;;
6269;SDS011;3168;51.684;6.954;2023-03-23T11:42:45;0.87;;;0.83;;
6269;SDS011;3168;51.684;6.954;2023-03-23T11:45:16;1.20;;;1.10;;
6269;SDS011;3168;51.684;6.954;2023-03-23T11:47:49;0.83;;;0.83;;
6269;SDS011;3168;51.684;6.954;2023-03-23T11:50:18;0.60;;;0.60;;
6269;SDS011;3168;51.684;6.954;2023-03-23T11:52:51;3.60;;;0.80;;
6269;SDS011;3168;51.684;6.954;2023-03-23T11:55:37;0.70;;;0.70;;
6269;SDS011;3168;51.684;6.954;2023-03-23T11:58:06;1.57;;;1.00;;
6269;SDS011;3168;51.684;6.954;2023-03-23T12:00:27;1.13;;;1.03;;
6269;SDS011;3168;51.684;6.954;2023-03-23T12:02:56;0.63;;;0.63;;
6269;SDS011;3168;51.684;6.954;2023-03-23T12:08:03;1.43;;;1.10;;
6269;SDS011;3168;51.684;6.954;2023-03-23T12:10:56;0.97;;;0.97;;
6269;SDS011;3168;51.684;6.954;2023-03-23T12:13:24;1.20;;;1.20;;
6269;SDS011;3168;51.684;6.954;2023-03-23T12:15:52;1.13;;;1.13;;
6269;SDS011;3168;51.684;6.954;2023-03-23T12:18:19;2.50;;;1.03;;
6269;SDS011;3168;51.684;6.954;2023-03-23T12:23:30;0.80;;;0.80;;
6269;SDS011;3168;51.684;6.954;2023-03-23T12:26:12;2.10;;;0.70;;
6269;SDS011;3168;51.684;6.954;2023-03-23T12:28:50;0.90;;;0.90;;
6269;SDS011;3168;51.684;6.954;2023-03-23T12:31:18;0.80;;;0.80;;
6269;SDS011;3168;51.684;6.954;2023-03-23T12:34:01;0.60;;;0.60;;
6269;SDS011;3168;51.684;6.954;2023-03-23T12:37:03;0.90;;;0.90;;
6269;SDS011;3168;51.684;6.954;2023-03-23T12:39:25;0.60;;;0.60;;
6269;SDS011;3168;51.684;6.954;2023-03-23T12:44:44;4.40;;;0.87;;
6269;SDS011;3168;51.684;6.954;2023-03-23T12:47:19;1.23;;;1.10;;
6269;SDS011;3168;51.684;6.954;2023-03-23T12:49:54;1.13;;;1.13;;
6269;SDS011;3168;51.684;6.954;2023-03-23T12:52:21;0.70;;;0.70;;
6269;SDS011;3168;51.684;6.954;2023-03-23T12:55:03;0.87;;;0.87;;
6269;SDS011;3168;51.684;6.954;2023-03-23T12:57:32;0.80;;;0.80;;
6269;SDS011;3168;51.684;6.954;2023-03-23T12:59:59;0.70;;;0.70;;
6269;SDS011;3168;51.684;6.954;2023-03-23T13:02:40;0.87;;;0.87;;
6269;SDS011;3168;51.684;6.954;2023-03-23T13:05:06;0.60;;;0.60;;
6269;SDS011;3168;51.684;6.954;2023-03-23T13:07:47;2.60;;;0.83;;
6269;SDS011;3168;51.684;6.954;2023-03-23T13:10:19;0.90;;;0.90;;
6269;SDS011;3168;51.684;6.954;2023-03-23T13:12:42;1.00;;;0.90;;
6269;SDS011;3168;51.684;6.954;2023-03-23T13:15:18;1.40;;;1.40;;
6269;SDS011;3168;51.684;6.954;2023-03-23T13:17:48;1.00;;;1.00;;
6269;SDS011;3168;51.684;6.954;2023-03-23T13:20:18;2.77;;;0.90;;
6269;SDS011;3168;51.684;6.954;2023-03-23T13:23:08;0.90;;;0.90;;
6269;SDS011;3168;51.684;6.954;2023-03-23T13:25:44;0.80;;;0.80;;
6269;SDS011;3168;51.684;6.954;2023-03-23T13:28:13;1.23;;;1.10;;
6269;SDS011;3168;51.684;6.954;2023-03-23T13:30:35;0.90;;;0.90;;
6269;SDS011;3168;51.684;6.954;2023-03-23T13:33:02;0.80;;;0.80;;
6269;SDS011;3168;51.684;6.954;2023-03-23T13:35:32;1.50;;;1.50;;
6269;SDS011;3168;51.684;6.954;2023-03-23T13:37:54;0.80;;;0.80;;
6269;SDS011;3168;51.684;6.954;2023-03-23T13:40:25;1.00;;;1.00;;
6269;SDS011;3168;51.684;6.954;2023-03-23T13:42:50;2.23;;;1.00;;
6269;SDS011;3168;51.684;6.954;2023-03-23T13:45:20;1.13;;;1.13;;
6269;SDS011;3168;51.684;6.954;2023-03-23T13:47:45;7.70;;;0.97;;
6269;SDS011;3168;51.684;6.954;2023-03-23T13:50:13;1.40;;;0.93;;
6269;SDS011;3168;51.684;6.954;2023-03-23T13:53:00;1.10;;;1.10;;
6269;SDS011;3168;51.684;6.954;2023-03-23T13:55:38;1.10;;;1.00;;
6269;SDS011;3168;51.684;6.954;2023-03-23T13:58:08;2.25;;;1.10;;
6269;SDS011;3168;51.684;6.954;2023-03-23T14:00:33;1.60;;;1.50;;
6269;SDS011;3168;51.684;6.954;2023-03-23T14:03:13;4.03;;;1.03;;
6269;SDS011;3168;51.684;6.954;2023-03-23T14:05:45;2.60;;;1.50;;
6269;SDS011;3168;51.684;6.954;2023-03-23T14:08:12;2.47;;;1.13;;
6269;SDS011;3168;51.684;6.954;2023-03-23T14:10:40;2.27;;;1.77;;
6269;SDS011;3168;51.684;6.954;2023-03-23T14:13:06;1.30;;;1.30;;
6269;SDS011;3168;51.684;6.954;2023-03-23T14:15:37;2.10;;;1.47;;
6269;SDS011;3168;51.684;6.954;2023-03-23T14:17:57;3.07;;;1.77;;
6269;SDS011;3168;51.684;6.954;2023-03-23T14:20:26;1.53;;;1.43;;
6269;SDS011;3168;51.684;6.954;2023-03-23T14:22:53;1.47;;;1.27;;
6269;SDS011;3168;51.684;6.954;2023-03-23T14:25:18;3.17;;;1.30;;
6269;SDS011;3168;51.684;6.954;2023-03-23T14:27:44;2.30;;;1.23;;
6269;SDS011;3168;51.684;6.954;2023-03-23T14:30:13;1.77;;;1.23;;
6269;SDS011;3168;51.684;6.954;2023-03-23T14:32:39;1.17;;;1.07;;
6269;SDS011;3168;51.684;6.954;2023-03-23T14:35:06;1.30;;;1.30;;
6269;SDS011;3168;51.684;6.954;2023-03-23T14:37:32;6.93;;;2.37;;
6269;SDS011;3168;51.684;6.954;2023-03-23T14:39:58;1.37;;;1.37;;
6269;SDS011;3168;51.684;6.954;2023-03-23T14:42:28;1.50;;;1.43;;
6269;SDS011;3168;51.684;6.954;2023-03-23T14:44:52;2.20;;;1.20;;
6269;SDS011;3168;51.684;6.954;2023-03-23T14:47:20;1.50;;;1.20;;
6269;SDS011;3168;51.684;6.954;2023-03-23T14:49:45;9.17;;;1.90;;
6269;SDS011;3168;51.684;6.954;2023-03-23T14:52:14;3.67;;;1.70;;
6269;SDS011;3168;51.684;6.954;2023-03-23T14:54:40;4.50;;;1.60;;
6269;SDS011;3168;51.684;6.954;2023-03-23T14:59:39;1.70;;;1.60;;
6269;SDS011;3168;51.684;6.954;2023-03-23T15:02:03;8.43;;;1.47;;
6269;SDS011;3168;51.684;6.954;2023-03-23T15:04:29;1.53;;;1.43;;
6269;SDS011;3168;51.684;6.954;2023-03-23T15:06:59;2.40;;;1.30;;
6269;SDS011;3168;51.684;6.954;2023-03-23T15:09:21;2.10;;;1.50;;
6269;SDS011;3168;51.684;6.954;2023-03-23T15:14:21;3.57;;;1.80;;
6269;SDS011;3168;51.684;6.954;2023-03-23T15:16:47;5.90;;;2.80;;
6269;SDS011;3168;51.684;6.954;2023-03-23T15:19:16;3.30;;;2.87;;
6269;SDS011;3168;51.684;6.954;2023-03-23T15:27:10;2.80;;;2.60;;
6269;SDS011;3168;51.684;6.954;2023-03-23T15:29:29;4.53;;;3.00;;
6269;SDS011;3168;51.684;6.954;2023-03-23T15:31:55;2.63;;;2.53;;
6269;SDS011;3168;51.684;6.954;2023-03-23T15:34:25;2.60;;;2.50;;
6269;SDS011;3168;51.684;6.954;2023-03-23T15:36:51;2.20;;;2.10;;
6269;SDS011;3168;51.684;6.954;2023-03-23T15:39:16;1.93;;;1.83;;
6269;SDS011;3168;51.684;6.954;2023-03-23T15:41:45;3.70;;;2.20;;
6269;SDS011;3168;51.684;6.954;2023-03-23T15:44:11;4.80;;;2.77;;
6269;SDS011;3168;51.684;6.954;2023-03-23T15:46:36;1.30;;;1.30;;